Archival Weather

Chicago O'Hare International

Chicago, Illinois (KORD)

Report from: Sunday, June 19, 2022 12:51 PM CDT
Current time: Monday, August 15, 2022 8:13 PM CDT

Current weather
Weather history
Weather forecast

Temperature26.7°C (80.1°F)
Heat index26.5°C (79.7°F)
Dew point6.7°C (44.1°F)
Winds 7 kts (3.6 m/s, 8.1 mph) South (180°)
Visibility10 mi. (16.1 km)
Clouds Scattered clouds 15,000 ft. (4,572 m)
Scattered clouds 25,000 ft. (7,620 m)
Altimeter30.23 in.Hg (1024 mB)
Relative humidity28 %
Density altitude1,146 ft. (349 m)
Sea-level pressure102.3 kPa (1023 mB, 30.22 in.Hg)
Max temp last 6 hours26.7°C (80.1°F)
Min temp last 6 hours13.9°C (57.0°F)
Remarks System requires maintenance
Automated weather observing station with precipitation discriminator
Pressure falling more quickly
Flight conditions Visual Meteorological Conditions
Raw dataKORD 191751Z 18007KT 10SM SCT150 SCT250 27/07 A3023 RMK AO2 SLP233 T02670067 10267 20139 58009 $
An error has occurred. This application may no longer respond until reloaded. Reload 🗙